sensor_id;sensor_type;location;lat;lon;timestamp;P1;durP1;ratioP1;P2;durP2;ratioP2
54855;SDS011;40748;53.168;5.800;2022-09-21T00:01:11;0.10;;;0.00;;
54855;SDS011;40748;53.168;5.800;2022-09-21T00:03:40;0.10;;;0.00;;
54855;SDS011;40748;53.168;5.800;2022-09-21T00:06:12;0.10;;;0.00;;
54855;SDS011;40748;53.168;5.800;2022-09-21T00:08:40;0.20;;;0.00;;
54855;SDS011;40748;53.168;5.800;2022-09-21T00:13:39;0.20;;;0.00;;
54855;SDS011;40748;53.168;5.800;2022-09-21T00:16:09;0.20;;;0.00;;
54855;SDS011;40748;53.168;5.800;2022-09-21T00:18:39;0.10;;;0.00;;
54855;SDS011;40748;53.168;5.800;2022-09-21T00:21:12;0.10;;;0.00;;
54855;SDS011;40748;53.168;5.800;2022-09-21T00:23:40;0.10;;;0.00;;
54855;SDS011;40748;53.168;5.800;2022-09-21T00:26:11;0.10;;;0.00;;
54855;SDS011;40748;53.168;5.800;2022-09-21T00:28:39;0.10;;;0.00;;
54855;SDS011;40748;53.168;5.800;2022-09-21T00:31:11;0.10;;;0.00;;
54855;SDS011;40748;53.168;5.800;2022-09-21T00:33:40;0.10;;;0.00;;
54855;SDS011;40748;53.168;5.800;2022-09-21T00:36:10;0.10;;;0.00;;
54855;SDS011;40748;53.168;5.800;2022-09-21T00:38:40;0.20;;;0.00;;
54855;SDS011;40748;53.168;5.800;2022-09-21T00:41:10;0.20;;;0.00;;
54855;SDS011;40748;53.168;5.800;2022-09-21T00:48:39;0.10;;;0.00;;
54855;SDS011;40748;53.168;5.800;2022-09-21T00:51:09;0.10;;;0.00;;
54855;SDS011;40748;53.168;5.800;2022-09-21T00:53:39;0.10;;;0.00;;
54855;SDS011;40748;53.168;5.800;2022-09-21T00:56:10;0.10;;;0.00;;
54855;SDS011;40748;53.168;5.800;2022-09-21T01:01:11;0.10;;;0.00;;
54855;SDS011;40748;53.168;5.800;2022-09-21T01:03:39;0.10;;;0.00;;
54855;SDS011;40748;53.168;5.800;2022-09-21T01:06:09;0.10;;;0.00;;
54855;SDS011;40748;53.168;5.800;2022-09-21T01:13:50;0.10;;;0.00;;
54855;SDS011;40748;53.168;5.800;2022-09-21T01:16:12;0.10;;;0.00;;
54855;SDS011;40748;53.168;5.800;2022-09-21T01:18:44;0.10;;;0.00;;
54855;SDS011;40748;53.168;5.800;2022-09-21T01:21:17;0.10;;;0.00;;
54855;SDS011;40748;53.168;5.800;2022-09-21T01:23:48;0.10;;;0.00;;
54855;SDS011;40748;53.168;5.800;2022-09-21T01:26:15;0.10;;;0.00;;
54855;SDS011;40748;53.168;5.800;2022-09-21T01:28:58;0.20;;;0.00;;
54855;SDS011;40748;53.168;5.800;2022-09-21T01:31:13;0.20;;;0.00;;
54855;SDS011;40748;53.168;5.800;2022-09-21T01:33:43;0.20;;;0.00;;
54855;SDS011;40748;53.168;5.800;2022-09-21T01:36:13;0.20;;;0.00;;
54855;SDS011;40748;53.168;5.800;2022-09-21T01:38:43;0.10;;;0.00;;
54855;SDS011;40748;53.168;5.800;2022-09-21T01:41:12;0.10;;;0.00;;
54855;SDS011;40748;53.168;5.800;2022-09-21T01:43:42;0.10;;;0.00;;
54855;SDS011;40748;53.168;5.800;2022-09-21T01:46:12;0.10;;;0.00;;
54855;SDS011;40748;53.168;5.800;2022-09-21T01:48:43;0.10;;;0.00;;
54855;SDS011;40748;53.168;5.800;2022-09-21T01:51:12;0.10;;;0.00;;
54855;SDS011;40748;53.168;5.800;2022-09-21T01:53:43;0.10;;;0.00;;
54855;SDS011;40748;53.168;5.800;2022-09-21T01:56:11;0.10;;;0.00;;
54855;SDS011;40748;53.168;5.800;2022-09-21T01:58:43;0.10;;;0.00;;
54855;SDS011;40748;53.168;5.800;2022-09-21T02:01:14;0.10;;;0.00;;
54855;SDS011;40748;53.168;5.800;2022-09-21T02:03:42;0.10;;;0.00;;
54855;SDS011;40748;53.168;5.800;2022-09-21T02:06:10;0.10;;;0.00;;
54855;SDS011;40748;53.168;5.800;2022-09-21T02:08:39;0.40;;;0.10;;
54855;SDS011;40748;53.168;5.800;2022-09-21T02:11:09;0.40;;;0.10;;
54855;SDS011;40748;53.168;5.800;2022-09-21T02:13:42;0.40;;;0.10;;
54855;SDS011;40748;53.168;5.800;2022-09-21T02:16:23;0.40;;;0.10;;
54855;SDS011;40748;53.168;5.800;2022-09-21T02:18:42;0.40;;;0.10;;
54855;SDS011;40748;53.168;5.800;2022-09-21T02:21:19;0.40;;;0.10;;
54855;SDS011;40748;53.168;5.800;2022-09-21T02:23:42;0.40;;;0.10;;
54855;SDS011;40748;53.168;5.800;2022-09-21T02:26:13;0.40;;;0.10;;
54855;SDS011;40748;53.168;5.800;2022-09-21T02:28:45;0.10;;;0.00;;
54855;SDS011;40748;53.168;5.800;2022-09-21T02:31:13;0.10;;;0.00;;
54855;SDS011;40748;53.168;5.800;2022-09-21T02:33:46;0.10;;;0.00;;
54855;SDS011;40748;53.168;5.800;2022-09-21T02:36:16;0.10;;;0.00;;
54855;SDS011;40748;53.168;5.800;2022-09-21T02:38:43;0.20;;;0.00;;
54855;SDS011;40748;53.168;5.800;2022-09-21T02:41:13;0.20;;;0.00;;
54855;SDS011;40748;53.168;5.800;2022-09-21T02:43:46;0.20;;;0.00;;
54855;SDS011;40748;53.168;5.800;2022-09-21T02:46:13;0.20;;;0.00;;
54855;SDS011;40748;53.168;5.800;2022-09-21T02:48:43;0.20;;;0.00;;
54855;SDS011;40748;53.168;5.800;2022-09-21T02:51:12;0.20;;;0.00;;
54855;SDS011;40748;53.168;5.800;2022-09-21T02:53:40;0.20;;;0.00;;
54855;SDS011;40748;53.168;5.800;2022-09-21T02:56:10;0.20;;;0.00;;
54855;SDS011;40748;53.168;5.800;2022-09-21T02:58:42;0.10;;;0.00;;
54855;SDS011;40748;53.168;5.800;2022-09-21T03:01:10;0.10;;;0.00;;
54855;SDS011;40748;53.168;5.800;2022-09-21T03:03:39;0.10;;;0.00;;
54855;SDS011;40748;53.168;5.800;2022-09-21T03:06:09;0.10;;;0.00;;
54855;SDS011;40748;53.168;5.800;2022-09-21T03:08:39;0.20;;;0.00;;
54855;SDS011;40748;53.168;5.800;2022-09-21T03:11:09;0.20;;;0.00;;
54855;SDS011;40748;53.168;5.800;2022-09-21T03:13:39;0.20;;;0.00;;
54855;SDS011;40748;53.168;5.800;2022-09-21T03:16:10;0.20;;;0.00;;
54855;SDS011;40748;53.168;5.800;2022-09-21T03:18:39;0.20;;;0.00;;
54855;SDS011;40748;53.168;5.800;2022-09-21T03:21:10;0.20;;;0.00;;
54855;SDS011;40748;53.168;5.800;2022-09-21T03:23:40;0.20;;;0.00;;
54855;SDS011;40748;53.168;5.800;2022-09-21T03:26:09;0.20;;;0.00;;
54855;SDS011;40748;53.168;5.800;2022-09-21T03:28:39;0.10;;;0.00;;
54855;SDS011;40748;53.168;5.800;2022-09-21T03:31:09;0.10;;;0.00;;
54855;SDS011;40748;53.168;5.800;2022-09-21T03:33:39;0.10;;;0.00;;
54855;SDS011;40748;53.168;5.800;2022-09-21T03:36:10;0.10;;;0.00;;
54855;SDS011;40748;53.168;5.800;2022-09-21T03:38:39;0.10;;;0.00;;
54855;SDS011;40748;53.168;5.800;2022-09-21T03:41:09;0.10;;;0.00;;
54855;SDS011;40748;53.168;5.800;2022-09-21T03:43:39;0.10;;;0.00;;
54855;SDS011;40748;53.168;5.800;2022-09-21T03:46:09;0.10;;;0.00;;
54855;SDS011;40748;53.168;5.800;2022-09-21T03:48:39;0.10;;;0.00;;
54855;SDS011;40748;53.168;5.800;2022-09-21T03:51:09;0.10;;;0.00;;
54855;SDS011;40748;53.168;5.800;2022-09-21T03:56:09;0.10;;;0.00;;
54855;SDS011;40748;53.168;5.800;2022-09-21T03:58:39;0.10;;;0.00;;
54855;SDS011;40748;53.168;5.800;2022-09-21T04:03:39;0.10;;;0.00;;
54855;SDS011;40748;53.168;5.800;2022-09-21T04:06:10;0.10;;;0.00;;
54855;SDS011;40748;53.168;5.800;2022-09-21T04:08:39;0.50;;;0.10;;
54855;SDS011;40748;53.168;5.800;2022-09-21T04:11:09;0.50;;;0.10;;
54855;SDS011;40748;53.168;5.800;2022-09-21T04:13:39;0.50;;;0.10;;
54855;SDS011;40748;53.168;5.800;2022-09-21T04:16:09;0.50;;;0.10;;
54855;SDS011;40748;53.168;5.800;2022-09-21T04:18:39;0.10;;;0.00;;
54855;SDS011;40748;53.168;5.800;2022-09-21T04:21:09;0.10;;;0.00;;
54855;SDS011;40748;53.168;5.800;2022-09-21T04:23:39;0.10;;;0.00;;
54855;SDS011;40748;53.168;5.800;2022-09-21T04:26:18;0.10;;;0.00;;
54855;SDS011;40748;53.168;5.800;2022-09-21T04:28:39;1.40;;;0.10;;
54855;SDS011;40748;53.168;5.800;2022-09-21T04:31:09;1.40;;;0.10;;
54855;SDS011;40748;53.168;5.800;2022-09-21T04:33:39;1.40;;;0.10;;
54855;SDS011;40748;53.168;5.800;2022-09-21T04:36:09;1.40;;;0.10;;
54855;SDS011;40748;53.168;5.800;2022-09-21T04:38:39;0.10;;;0.00;;
54855;SDS011;40748;53.168;5.800;2022-09-21T04:41:09;0.10;;;0.00;;
54855;SDS011;40748;53.168;5.800;2022-09-21T04:43:40;0.10;;;0.00;;
54855;SDS011;40748;53.168;5.800;2022-09-21T04:46:12;0.10;;;0.00;;
54855;SDS011;40748;53.168;5.800;2022-09-21T04:48:39;0.10;;;0.00;;
54855;SDS011;40748;53.168;5.800;2022-09-21T04:51:10;0.10;;;0.00;;
54855;SDS011;40748;53.168;5.800;2022-09-21T04:53:40;0.10;;;0.00;;
54855;SDS011;40748;53.168;5.800;2022-09-21T04:56:12;0.10;;;0.00;;
54855;SDS011;40748;53.168;5.800;2022-09-21T04:58:39;0.10;;;0.00;;
54855;SDS011;40748;53.168;5.800;2022-09-21T05:01:09;0.10;;;0.00;;
54855;SDS011;40748;53.168;5.800;2022-09-21T05:03:39;0.10;;;0.00;;
54855;SDS011;40748;53.168;5.800;2022-09-21T05:06:09;0.10;;;0.00;;
54855;SDS011;40748;53.168;5.800;2022-09-21T05:08:40;0.10;;;0.00;;
54855;SDS011;40748;53.168;5.800;2022-09-21T05:13:39;0.10;;;0.00;;
54855;SDS011;40748;53.168;5.800;2022-09-21T05:16:10;0.10;;;0.00;;
54855;SDS011;40748;53.168;5.800;2022-09-21T05:18:39;0.10;;;0.00;;
54855;SDS011;40748;53.168;5.800;2022-09-21T05:21:10;0.10;;;0.00;;
54855;SDS011;40748;53.168;5.800;2022-09-21T05:23:39;0.10;;;0.00;;
54855;SDS011;40748;53.168;5.800;2022-09-21T05:26:09;0.10;;;0.00;;
54855;SDS011;40748;53.168;5.800;2022-09-21T05:28:39;0.10;;;0.00;;
54855;SDS011;40748;53.168;5.800;2022-09-21T05:31:26;0.10;;;0.00;;
54855;SDS011;40748;53.168;5.800;2022-09-21T05:33:41;0.10;;;0.00;;
54855;SDS011;40748;53.168;5.800;2022-09-21T05:36:26;0.10;;;0.00;;
54855;SDS011;40748;53.168;5.800;2022-09-21T05:41:09;0.20;;;0.00;;
54855;SDS011;40748;53.168;5.800;2022-09-21T05:43:40;0.20;;;0.00;;
54855;SDS011;40748;53.168;5.800;2022-09-21T05:46:15;0.20;;;0.00;;
54855;SDS011;40748;53.168;5.800;2022-09-21T05:51:14;0.10;;;0.00;;
54855;SDS011;40748;53.168;5.800;2022-09-21T05:53:47;0.10;;;0.00;;
54855;SDS011;40748;53.168;5.800;2022-09-21T05:56:16;0.10;;;0.00;;
54855;SDS011;40748;53.168;5.800;2022-09-21T05:58:44;0.10;;;0.00;;
54855;SDS011;40748;53.168;5.800;2022-09-21T06:01:19;0.10;;;0.00;;
54855;SDS011;40748;53.168;5.800;2022-09-21T06:03:39;0.10;;;0.00;;
54855;SDS011;40748;53.168;5.800;2022-09-21T06:06:09;0.10;;;0.00;;
54855;SDS011;40748;53.168;5.800;2022-09-21T06:08:39;0.10;;;0.00;;
54855;SDS011;40748;53.168;5.800;2022-09-21T06:11:09;0.10;;;0.00;;
54855;SDS011;40748;53.168;5.800;2022-09-21T06:13:39;0.10;;;0.00;;
54855;SDS011;40748;53.168;5.800;2022-09-21T06:16:09;0.10;;;0.00;;
54855;SDS011;40748;53.168;5.800;2022-09-21T06:18:39;0.20;;;0.00;;
54855;SDS011;40748;53.168;5.800;2022-09-21T06:21:09;0.20;;;0.00;;
54855;SDS011;40748;53.168;5.800;2022-09-21T06:23:39;0.20;;;0.00;;
54855;SDS011;40748;53.168;5.800;2022-09-21T06:26:09;0.20;;;0.00;;
54855;SDS011;40748;53.168;5.800;2022-09-21T06:28:39;0.10;;;0.00;;
54855;SDS011;40748;53.168;5.800;2022-09-21T06:31:09;0.10;;;0.00;;
54855;SDS011;40748;53.168;5.800;2022-09-21T06:33:39;0.10;;;0.00;;
54855;SDS011;40748;53.168;5.800;2022-09-21T06:36:09;0.10;;;0.00;;
54855;SDS011;40748;53.168;5.800;2022-09-21T06:38:39;0.20;;;0.00;;
54855;SDS011;40748;53.168;5.800;2022-09-21T06:41:09;0.20;;;0.00;;
54855;SDS011;40748;53.168;5.800;2022-09-21T06:43:39;0.20;;;0.00;;
54855;SDS011;40748;53.168;5.800;2022-09-21T06:46:09;0.20;;;0.00;;
54855;SDS011;40748;53.168;5.800;2022-09-21T06:48:39;0.20;;;0.00;;
54855;SDS011;40748;53.168;5.800;2022-09-21T06:51:09;0.20;;;0.00;;
54855;SDS011;40748;53.168;5.800;2022-09-21T06:53:39;0.20;;;0.00;;
54855;SDS011;40748;53.168;5.800;2022-09-21T06:56:09;0.20;;;0.00;;
54855;SDS011;40748;53.168;5.800;2022-09-21T06:58:39;0.50;;;0.20;;
54855;SDS011;40748;53.168;5.800;2022-09-21T07:01:10;0.50;;;0.20;;
54855;SDS011;40748;53.168;5.800;2022-09-21T07:03:40;0.50;;;0.20;;
54855;SDS011;40748;53.168;5.800;2022-09-21T07:06:10;0.50;;;0.20;;
54855;SDS011;40748;53.168;5.800;2022-09-21T07:08:39;1.70;;;0.20;;
54855;SDS011;40748;53.168;5.800;2022-09-21T07:11:09;1.70;;;0.20;;
54855;SDS011;40748;53.168;5.800;2022-09-21T07:13:39;1.70;;;0.20;;
54855;SDS011;40748;53.168;5.800;2022-09-21T07:16:09;1.70;;;0.20;;
54855;SDS011;40748;53.168;5.800;2022-09-21T07:18:39;0.60;;;0.30;;
54855;SDS011;40748;53.168;5.800;2022-09-21T07:21:10;0.60;;;0.30;;
54855;SDS011;40748;53.168;5.800;2022-09-21T07:23:39;0.60;;;0.30;;
54855;SDS011;40748;53.168;5.800;2022-09-21T07:26:11;0.60;;;0.30;;
54855;SDS011;40748;53.168;5.800;2022-09-21T07:28:39;0.10;;;0.00;;
54855;SDS011;40748;53.168;5.800;2022-09-21T07:31:11;0.10;;;0.00;;
54855;SDS011;40748;53.168;5.800;2022-09-21T07:33:40;0.10;;;0.00;;
54855;SDS011;40748;53.168;5.800;2022-09-21T07:36:10;0.10;;;0.00;;
54855;SDS011;40748;53.168;5.800;2022-09-21T07:38:40;0.10;;;0.00;;
54855;SDS011;40748;53.168;5.800;2022-09-21T07:41:11;0.10;;;0.00;;
54855;SDS011;40748;53.168;5.800;2022-09-21T07:43:40;0.10;;;0.00;;
54855;SDS011;40748;53.168;5.800;2022-09-21T07:46:11;0.10;;;0.00;;
54855;SDS011;40748;53.168;5.800;2022-09-21T07:48:40;0.10;;;0.00;;
54855;SDS011;40748;53.168;5.800;2022-09-21T07:51:11;0.10;;;0.00;;
54855;SDS011;40748;53.168;5.800;2022-09-21T07:53:41;0.10;;;0.00;;
54855;SDS011;40748;53.168;5.800;2022-09-21T07:56:11;0.10;;;0.00;;
54855;SDS011;40748;53.168;5.800;2022-09-21T07:58:40;0.10;;;0.00;;
54855;SDS011;40748;53.168;5.800;2022-09-21T08:01:09;0.10;;;0.00;;
54855;SDS011;40748;53.168;5.800;2022-09-21T08:03:39;0.10;;;0.00;;
54855;SDS011;40748;53.168;5.800;2022-09-21T08:06:09;0.10;;;0.00;;
54855;SDS011;40748;53.168;5.800;2022-09-21T08:08:39;0.10;;;0.00;;
54855;SDS011;40748;53.168;5.800;2022-09-21T08:11:09;0.10;;;0.00;;
54855;SDS011;40748;53.168;5.800;2022-09-21T08:13:39;0.10;;;0.00;;
54855;SDS011;40748;53.168;5.800;2022-09-21T08:16:09;0.10;;;0.00;;
54855;SDS011;40748;53.168;5.800;2022-09-21T08:18:40;0.10;;;0.00;;
54855;SDS011;40748;53.168;5.800;2022-09-21T08:21:10;0.10;;;0.00;;
54855;SDS011;40748;53.168;5.800;2022-09-21T08:23:39;0.10;;;0.00;;
54855;SDS011;40748;53.168;5.800;2022-09-21T08:26:11;0.10;;;0.00;;
54855;SDS011;40748;53.168;5.800;2022-09-21T08:28:39;0.20;;;0.10;;
54855;SDS011;40748;53.168;5.800;2022-09-21T08:31:09;0.20;;;0.10;;
54855;SDS011;40748;53.168;5.800;2022-09-21T08:33:39;0.20;;;0.10;;
54855;SDS011;40748;53.168;5.800;2022-09-21T08:36:09;0.20;;;0.10;;
54855;SDS011;40748;53.168;5.800;2022-09-21T08:38:39;0.60;;;0.40;;
54855;SDS011;40748;53.168;5.800;2022-09-21T08:41:13;0.60;;;0.40;;
54855;SDS011;40748;53.168;5.800;2022-09-21T08:43:42;0.60;;;0.40;;
54855;SDS011;40748;53.168;5.800;2022-09-21T08:46:11;0.60;;;0.40;;
54855;SDS011;40748;53.168;5.800;2022-09-21T08:48:42;0.10;;;0.00;;
54855;SDS011;40748;53.168;5.800;2022-09-21T08:51:13;0.10;;;0.00;;
54855;SDS011;40748;53.168;5.800;2022-09-21T08:53:41;0.10;;;0.00;;
54855;SDS011;40748;53.168;5.800;2022-09-21T08:56:11;0.10;;;0.00;;
54855;SDS011;40748;53.168;5.800;2022-09-21T08:58:40;0.10;;;0.00;;
54855;SDS011;40748;53.168;5.800;2022-09-21T09:01:24;0.10;;;0.00;;
54855;SDS011;40748;53.168;5.800;2022-09-21T09:03:51;0.10;;;0.00;;
54855;SDS011;40748;53.168;5.800;2022-09-21T09:06:14;0.10;;;0.00;;
54855;SDS011;40748;53.168;5.800;2022-09-21T09:08:54;0.20;;;0.00;;
54855;SDS011;40748;53.168;5.800;2022-09-21T09:11:20;0.20;;;0.00;;
54855;SDS011;40748;53.168;5.800;2022-09-21T09:13:52;0.20;;;0.00;;
54855;SDS011;40748;53.168;5.800;2022-09-21T09:16:16;0.20;;;0.00;;
54855;SDS011;40748;53.168;5.800;2022-09-21T09:18:44;0.10;;;0.00;;
54855;SDS011;40748;53.168;5.800;2022-09-21T09:21:12;0.10;;;0.00;;
54855;SDS011;40748;53.168;5.800;2022-09-21T09:23:43;0.10;;;0.00;;
54855;SDS011;40748;53.168;5.800;2022-09-21T09:26:16;0.10;;;0.00;;
54855;SDS011;40748;53.168;5.800;2022-09-21T09:28:42;1.60;;;0.20;;
54855;SDS011;40748;53.168;5.800;2022-09-21T09:31:12;1.60;;;0.20;;
54855;SDS011;40748;53.168;5.800;2022-09-21T09:33:49;1.60;;;0.20;;
54855;SDS011;40748;53.168;5.800;2022-09-21T09:36:11;1.60;;;0.20;;
54855;SDS011;40748;53.168;5.800;2022-09-21T09:38:44;0.10;;;0.00;;
54855;SDS011;40748;53.168;5.800;2022-09-21T09:41:21;0.10;;;0.00;;
54855;SDS011;40748;53.168;5.800;2022-09-21T09:43:47;0.10;;;0.00;;
54855;SDS011;40748;53.168;5.800;2022-09-21T09:46:16;0.10;;;0.00;;
54855;SDS011;40748;53.168;5.800;2022-09-21T09:48:53;0.10;;;0.00;;
54855;SDS011;40748;53.168;5.800;2022-09-21T09:51:11;0.10;;;0.00;;
54855;SDS011;40748;53.168;5.800;2022-09-21T09:53:39;0.10;;;0.00;;
54855;SDS011;40748;53.168;5.800;2022-09-21T09:56:11;0.10;;;0.00;;
54855;SDS011;40748;53.168;5.800;2022-09-21T09:58:42;0.20;;;0.10;;
54855;SDS011;40748;53.168;5.800;2022-09-21T10:03:39;0.20;;;0.10;;
54855;SDS011;40748;53.168;5.800;2022-09-21T10:06:15;0.20;;;0.10;;
54855;SDS011;40748;53.168;5.800;2022-09-21T10:08:42;1.40;;;0.10;;
54855;SDS011;40748;53.168;5.800;2022-09-21T10:11:11;1.40;;;0.10;;
54855;SDS011;40748;53.168;5.800;2022-09-21T10:13:41;1.40;;;0.10;;
54855;SDS011;40748;53.168;5.800;2022-09-21T10:16:12;1.40;;;0.10;;
54855;SDS011;40748;53.168;5.800;2022-09-21T10:18:44;0.10;;;0.00;;
54855;SDS011;40748;53.168;5.800;2022-09-21T10:21:16;0.10;;;0.00;;
54855;SDS011;40748;53.168;5.800;2022-09-21T10:23:45;0.10;;;0.00;;
54855;SDS011;40748;53.168;5.800;2022-09-21T10:26:12;0.10;;;0.00;;
54855;SDS011;40748;53.168;5.800;2022-09-21T10:28:57;0.20;;;0.00;;
54855;SDS011;40748;53.168;5.800;2022-09-21T10:31:15;0.20;;;0.00;;
54855;SDS011;40748;53.168;5.800;2022-09-21T10:33:48;0.20;;;0.00;;
54855;SDS011;40748;53.168;5.800;2022-09-21T10:36:23;0.20;;;0.00;;
54855;SDS011;40748;53.168;5.800;2022-09-21T10:38:39;0.20;;;0.10;;
54855;SDS011;40748;53.168;5.800;2022-09-21T10:41:10;0.20;;;0.10;;
54855;SDS011;40748;53.168;5.800;2022-09-21T10:43:41;0.20;;;0.10;;
54855;SDS011;40748;53.168;5.800;2022-09-21T10:46:09;0.20;;;0.10;;
54855;SDS011;40748;53.168;5.800;2022-09-21T10:48:44;0.20;;;0.00;;
54855;SDS011;40748;53.168;5.800;2022-09-21T10:51:20;0.20;;;0.00;;
54855;SDS011;40748;53.168;5.800;2022-09-21T10:53:46;0.20;;;0.00;;
54855;SDS011;40748;53.168;5.800;2022-09-21T10:56:15;0.20;;;0.00;;
54855;SDS011;40748;53.168;5.800;2022-09-21T11:01:12;0.20;;;0.00;;
54855;SDS011;40748;53.168;5.800;2022-09-21T11:03:46;0.20;;;0.00;;
54855;SDS011;40748;53.168;5.800;2022-09-21T11:06:15;0.20;;;0.00;;
54855;SDS011;40748;53.168;5.800;2022-09-21T11:08:45;0.10;;;0.00;;
54855;SDS011;40748;53.168;5.800;2022-09-21T11:11:26;0.10;;;0.00;;
54855;SDS011;40748;53.168;5.800;2022-09-21T11:13:45;0.10;;;0.00;;
54855;SDS011;40748;53.168;5.800;2022-09-21T11:16:14;0.10;;;0.00;;
54855;SDS011;40748;53.168;5.800;2022-09-21T11:18:45;3.90;;;0.50;;
54855;SDS011;40748;53.168;5.800;2022-09-21T11:21:16;3.90;;;0.50;;
54855;SDS011;40748;53.168;5.800;2022-09-21T11:23:47;3.90;;;0.50;;
54855;SDS011;40748;53.168;5.800;2022-09-21T11:26:16;3.90;;;0.50;;
54855;SDS011;40748;53.168;5.800;2022-09-21T11:28:46;0.50;;;0.20;;
54855;SDS011;40748;53.168;5.800;2022-09-21T11:31:23;0.50;;;0.20;;
54855;SDS011;40748;53.168;5.800;2022-09-21T11:33:52;0.50;;;0.20;;
54855;SDS011;40748;53.168;5.800;2022-09-21T11:36:12;0.50;;;0.20;;
54855;SDS011;40748;53.168;5.800;2022-09-21T11:38:50;0.20;;;0.00;;
54855;SDS011;40748;53.168;5.800;2022-09-21T11:41:19;0.20;;;0.00;;
54855;SDS011;40748;53.168;5.800;2022-09-21T11:43:52;0.20;;;0.00;;
54855;SDS011;40748;53.168;5.800;2022-09-21T11:46:19;0.20;;;0.00;;
54855;SDS011;40748;53.168;5.800;2022-09-21T11:48:51;0.40;;;0.20;;
54855;SDS011;40748;53.168;5.800;2022-09-21T11:51:23;0.40;;;0.20;;
54855;SDS011;40748;53.168;5.800;2022-09-21T11:53:49;0.40;;;0.20;;
54855;SDS011;40748;53.168;5.800;2022-09-21T11:56:23;0.40;;;0.20;;
54855;SDS011;40748;53.168;5.800;2022-09-21T11:58:46;0.10;;;0.00;;
54855;SDS011;40748;53.168;5.800;2022-09-21T12:01:25;0.10;;;0.00;;
54855;SDS011;40748;53.168;5.800;2022-09-21T12:03:49;0.10;;;0.00;;
54855;SDS011;40748;53.168;5.800;2022-09-21T12:06:16;0.10;;;0.00;;
54855;SDS011;40748;53.168;5.800;2022-09-21T12:08:51;0.30;;;0.10;;
54855;SDS011;40748;53.168;5.800;2022-09-21T12:11:16;0.30;;;0.10;;
54855;SDS011;40748;53.168;5.800;2022-09-21T12:13:46;0.30;;;0.10;;
54855;SDS011;40748;53.168;5.800;2022-09-21T12:16:14;0.30;;;0.10;;
54855;SDS011;40748;53.168;5.800;2022-09-21T12:18:47;0.10;;;0.00;;
54855;SDS011;40748;53.168;5.800;2022-09-21T12:21:14;0.10;;;0.00;;
54855;SDS011;40748;53.168;5.800;2022-09-21T12:23:42;0.10;;;0.00;;
54855;SDS011;40748;53.168;5.800;2022-09-21T12:26:12;0.10;;;0.00;;
54855;SDS011;40748;53.168;5.800;2022-09-21T12:28:43;0.10;;;0.00;;
54855;SDS011;40748;53.168;5.800;2022-09-21T12:31:14;0.10;;;0.00;;
54855;SDS011;40748;53.168;5.800;2022-09-21T12:33:44;0.10;;;0.00;;
54855;SDS011;40748;53.168;5.800;2022-09-21T12:36:12;0.10;;;0.00;;
54855;SDS011;40748;53.168;5.800;2022-09-21T12:38:42;0.10;;;0.00;;
54855;SDS011;40748;53.168;5.800;2022-09-21T12:41:15;0.10;;;0.00;;
54855;SDS011;40748;53.168;5.800;2022-09-21T12:46:13;0.10;;;0.00;;
54855;SDS011;40748;53.168;5.800;2022-09-21T12:48:39;4.30;;;0.50;;
54855;SDS011;40748;53.168;5.800;2022-09-21T12:51:13;4.30;;;0.50;;
54855;SDS011;40748;53.168;5.800;2022-09-21T12:53:44;4.30;;;0.50;;
54855;SDS011;40748;53.168;5.800;2022-09-21T12:56:12;4.30;;;0.50;;
54855;SDS011;40748;53.168;5.800;2022-09-21T12:58:48;0.10;;;0.00;;
54855;SDS011;40748;53.168;5.800;2022-09-21T13:01:25;0.10;;;0.00;;
54855;SDS011;40748;53.168;5.800;2022-09-21T13:03:46;0.10;;;0.00;;
54855;SDS011;40748;53.168;5.800;2022-09-21T13:06:25;0.10;;;0.00;;
54855;SDS011;40748;53.168;5.800;2022-09-21T13:08:42;0.10;;;0.00;;
54855;SDS011;40748;53.168;5.800;2022-09-21T13:11:10;0.10;;;0.00;;
54855;SDS011;40748;53.168;5.800;2022-09-21T13:13:44;0.10;;;0.00;;
54855;SDS011;40748;53.168;5.800;2022-09-21T13:16:22;0.10;;;0.00;;
54855;SDS011;40748;53.168;5.800;2022-09-21T13:18:40;0.40;;;0.10;;
54855;SDS011;40748;53.168;5.800;2022-09-21T13:21:18;0.40;;;0.10;;
54855;SDS011;40748;53.168;5.800;2022-09-21T13:23:40;0.40;;;0.10;;
54855;SDS011;40748;53.168;5.800;2022-09-21T13:26:11;0.40;;;0.10;;
54855;SDS011;40748;53.168;5.800;2022-09-21T13:31:28;0.50;;;0.10;;
54855;SDS011;40748;53.168;5.800;2022-09-21T13:36:28;0.50;;;0.10;;
54855;SDS011;40748;53.168;5.800;2022-09-21T13:41:23;0.10;;;0.00;;
54855;SDS011;40748;53.168;5.800;2022-09-21T13:43:44;0.10;;;0.00;;
54855;SDS011;40748;53.168;5.800;2022-09-21T13:48:39;0.20;;;0.10;;
54855;SDS011;40748;53.168;5.800;2022-09-21T13:51:13;0.20;;;0.10;;
54855;SDS011;40748;53.168;5.800;2022-09-21T13:53:39;0.20;;;0.10;;
54855;SDS011;40748;53.168;5.800;2022-09-21T13:56:17;0.20;;;0.10;;
54855;SDS011;40748;53.168;5.800;2022-09-21T13:58:42;0.20;;;0.00;;
54855;SDS011;40748;53.168;5.800;2022-09-21T14:01:16;0.20;;;0.00;;
54855;SDS011;40748;53.168;5.800;2022-09-21T14:03:42;0.20;;;0.00;;
54855;SDS011;40748;53.168;5.800;2022-09-21T14:06:13;0.20;;;0.00;;
54855;SDS011;40748;53.168;5.800;2022-09-21T14:08:46;0.10;;;0.00;;
54855;SDS011;40748;53.168;5.800;2022-09-21T14:11:21;0.10;;;0.00;;
54855;SDS011;40748;53.168;5.800;2022-09-21T14:13:43;0.10;;;0.00;;
54855;SDS011;40748;53.168;5.800;2022-09-21T14:18:39;0.40;;;0.30;;
54855;SDS011;40748;53.168;5.800;2022-09-21T14:21:13;0.40;;;0.30;;
54855;SDS011;40748;53.168;5.800;2022-09-21T14:23:39;0.40;;;0.30;;
54855;SDS011;40748;53.168;5.800;2022-09-21T14:26:20;0.40;;;0.30;;
54855;SDS011;40748;53.168;5.800;2022-09-21T14:28:42;0.20;;;0.10;;
54855;SDS011;40748;53.168;5.800;2022-09-21T14:31:16;0.20;;;0.10;;
54855;SDS011;40748;53.168;5.800;2022-09-21T14:33:44;0.20;;;0.10;;
54855;SDS011;40748;53.168;5.800;2022-09-21T14:36:15;0.20;;;0.10;;
54855;SDS011;40748;53.168;5.800;2022-09-21T14:38:44;0.10;;;0.00;;
54855;SDS011;40748;53.168;5.800;2022-09-21T14:41:15;0.10;;;0.00;;
54855;SDS011;40748;53.168;5.800;2022-09-21T14:43:39;0.10;;;0.00;;
54855;SDS011;40748;53.168;5.800;2022-09-21T14:46:20;0.10;;;0.00;;
54855;SDS011;40748;53.168;5.800;2022-09-21T14:48:49;0.10;;;0.00;;
54855;SDS011;40748;53.168;5.800;2022-09-21T14:51:17;0.10;;;0.00;;
54855;SDS011;40748;53.168;5.800;2022-09-21T14:53:53;0.10;;;0.00;;
54855;SDS011;40748;53.168;5.800;2022-09-21T14:56:21;0.10;;;0.00;;
54855;SDS011;40748;53.168;5.800;2022-09-21T14:58:52;0.20;;;0.00;;
54855;SDS011;40748;53.168;5.800;2022-09-21T15:01:33;0.20;;;0.00;;
54855;SDS011;40748;53.168;5.800;2022-09-21T15:03:52;0.20;;;0.00;;
54855;SDS011;40748;53.168;5.800;2022-09-21T15:06:18;0.20;;;0.00;;
54855;SDS011;40748;53.168;5.800;2022-09-21T15:08:48;0.10;;;0.00;;
54855;SDS011;40748;53.168;5.800;2022-09-21T15:11:16;0.10;;;0.00;;
54855;SDS011;40748;53.168;5.800;2022-09-21T15:13:47;0.10;;;0.00;;
54855;SDS011;40748;53.168;5.800;2022-09-21T15:16:17;0.10;;;0.00;;
54855;SDS011;40748;53.168;5.800;2022-09-21T15:18:40;0.50;;;0.10;;
54855;SDS011;40748;53.168;5.800;2022-09-21T15:21:20;0.50;;;0.10;;
54855;SDS011;40748;53.168;5.800;2022-09-21T15:23:39;0.50;;;0.10;;
54855;SDS011;40748;53.168;5.800;2022-09-21T15:26:15;0.50;;;0.10;;
54855;SDS011;40748;53.168;5.800;2022-09-21T15:28:43;0.30;;;0.10;;
54855;SDS011;40748;53.168;5.800;2022-09-21T15:31:10;0.30;;;0.10;;
54855;SDS011;40748;53.168;5.800;2022-09-21T15:33:40;0.30;;;0.10;;
54855;SDS011;40748;53.168;5.800;2022-09-21T15:36:09;0.30;;;0.10;;
54855;SDS011;40748;53.168;5.800;2022-09-21T15:38:46;7.00;;;0.40;;
54855;SDS011;40748;53.168;5.800;2022-09-21T15:43:40;7.00;;;0.40;;
54855;SDS011;40748;53.168;5.800;2022-09-21T15:46:10;7.00;;;0.40;;
54855;SDS011;40748;53.168;5.800;2022-09-21T15:48:39;0.10;;;0.00;;
54855;SDS011;40748;53.168;5.800;2022-09-21T15:51:13;0.10;;;0.00;;
54855;SDS011;40748;53.168;5.800;2022-09-21T15:53:43;0.10;;;0.00;;